createdAt,value
2023-02-13T00:00:53.593Z,7.57
2023-02-13T00:03:20.816Z,7.49
2023-02-13T00:05:48.013Z,7.43
2023-02-13T00:08:15.232Z,7.38
2023-02-13T00:10:42.289Z,7.33
2023-02-13T00:13:09.481Z,7.28
2023-02-13T00:15:36.647Z,7.21
2023-02-13T00:18:04.537Z,7.16
2023-02-13T00:20:31.923Z,7.10
2023-02-13T00:23:00.154Z,7.03
2023-02-13T00:25:27.783Z,6.98
2023-02-13T00:27:54.945Z,6.89
2023-02-13T00:30:22.487Z,6.84
2023-02-13T00:32:49.741Z,6.80
2023-02-13T00:35:17.090Z,6.74
2023-02-13T00:37:44.356Z,6.70
2023-02-13T00:40:12.619Z,6.64
2023-02-13T00:42:39.946Z,6.61
2023-02-13T00:45:07.649Z,6.59
2023-02-13T00:47:34.831Z,6.54
2023-02-13T00:50:02.111Z,6.51
2023-02-13T00:52:29.185Z,6.49
2023-02-13T00:54:56.310Z,6.44
2023-02-13T00:57:23.437Z,6.38
2023-02-13T00:59:51.188Z,6.34
2023-02-13T01:02:19.129Z,6.31
2023-02-13T01:04:46.486Z,6.27
2023-02-13T01:07:15.723Z,6.24
2023-02-13T01:09:44.123Z,6.18
2023-02-13T01:12:11.394Z,6.15
2023-02-13T01:14:38.530Z,6.12
2023-02-13T01:17:05.574Z,6.07
2023-02-13T01:19:32.916Z,6.05
2023-02-13T01:22:00.135Z,6.01
2023-02-13T01:24:30.115Z,5.99
2023-02-13T01:26:57.269Z,5.93
2023-02-13T01:29:24.397Z,5.90
2023-02-13T01:31:51.725Z,5.87
2023-02-13T01:34:19.131Z,5.86
2023-02-13T01:36:46.260Z,5.81
2023-02-13T01:39:13.465Z,5.79
2023-02-13T01:41:40.556Z,5.78
2023-02-13T01:44:50.157Z,5.73
2023-02-13T01:48:04.110Z,5.68
2023-02-13T01:50:44.354Z,5.64
2023-02-13T01:53:38.112Z,5.62
2023-02-13T01:56:11.106Z,5.59
2023-02-13T01:58:42.582Z,5.56
2023-02-13T02:01:10.935Z,5.53
2023-02-13T02:03:53.946Z,5.53
2023-02-13T02:06:32.266Z,5.51
2023-02-13T02:09:09.690Z,5.48
2023-02-13T02:12:08.006Z,5.46
2023-02-13T02:14:35.210Z,5.43
2023-02-13T02:17:02.586Z,5.40
2023-02-13T02:19:49.107Z,5.38
2023-02-13T02:22:48.551Z,5.35
2023-02-13T02:25:15.403Z,5.32
2023-02-13T02:28:00.476Z,5.30
2023-02-13T02:30:47.948Z,5.26
2023-02-13T02:33:55.327Z,5.22
2023-02-13T02:37:06.612Z,5.20
2023-02-13T02:39:48.641Z,5.18
2023-02-13T02:42:26.880Z,5.15
2023-02-13T02:45:01.191Z,5.12
2023-02-13T02:48:10.333Z,5.11
2023-02-13T02:51:08.868Z,5.07
2023-02-13T02:54:01.800Z,5.05
2023-02-13T02:56:40.935Z,5.02
2023-02-13T02:59:33.160Z,5.01
2023-02-13T03:02:21.115Z,4.97
2023-02-13T03:05:14.553Z,4.94
2023-02-13T03:07:41.808Z,4.92
2023-02-13T03:10:39.268Z,4.89
2023-02-13T03:13:31.363Z,4.87
2023-02-13T03:16:19.000Z,4.86
2023-02-13T03:19:10.954Z,4.83
2023-02-13T03:22:26.428Z,4.79
2023-02-13T03:25:10.887Z,4.75
2023-02-13T03:28:20.158Z,4.72
2023-02-13T03:31:27.493Z,4.69
2023-02-13T03:34:09.386Z,4.66
2023-02-13T03:37:28.992Z,4.63
2023-02-13T03:40:37.605Z,4.59
2023-02-13T03:43:14.547Z,4.57
2023-02-13T03:45:54.105Z,4.55
2023-02-13T03:48:51.314Z,4.50
2023-02-13T03:51:29.475Z,4.47
2023-02-13T03:54:02.011Z,4.47
2023-02-13T03:56:50.178Z,4.43
2023-02-13T03:59:28.931Z,4.43
2023-02-13T04:02:21.089Z,4.40
2023-02-13T04:05:03.650Z,4.38
2023-02-13T04:07:31.930Z,4.34
2023-02-13T04:10:15.661Z,4.32
2023-02-13T04:13:12.224Z,4.29
2023-02-13T04:15:46.694Z,4.26
2023-02-13T04:18:23.681Z,4.22
2023-02-13T04:20:51.132Z,4.19
2023-02-13T04:23:19.553Z,4.15
2023-02-13T04:25:51.416Z,4.14
2023-02-13T04:28:18.618Z,4.11
2023-02-13T04:30:46.018Z,4.09
2023-02-13T04:33:13.519Z,4.05
2023-02-13T04:35:40.773Z,4.02
2023-02-13T04:38:08.021Z,4.01
2023-02-13T04:40:35.337Z,3.98
2023-02-13T04:43:02.542Z,3.95
2023-02-13T04:45:29.653Z,3.93
2023-02-13T04:47:57.886Z,3.90
2023-02-13T04:50:25.675Z,3.88
2023-02-13T04:52:58.016Z,3.86
2023-02-13T04:55:28.014Z,3.86
2023-02-13T04:57:56.646Z,3.86
2023-02-13T05:00:27.845Z,3.85
2023-02-13T05:03:00.342Z,3.85
2023-02-13T05:05:27.443Z,3.86
2023-02-13T05:07:54.440Z,3.86
2023-02-13T05:10:21.615Z,3.86
2023-02-13T05:12:49.218Z,3.89
2023-02-13T05:15:16.863Z,3.91
2023-02-13T05:17:45.421Z,3.93
2023-02-13T05:20:14.159Z,3.93
2023-02-13T05:23:11.993Z,3.93
2023-02-13T05:25:41.835Z,3.94
2023-02-13T05:28:29.897Z,3.93
2023-02-13T05:30:57.882Z,3.91
2023-02-13T05:33:25.740Z,3.90
2023-02-13T05:35:52.918Z,3.86
2023-02-13T05:38:20.136Z,3.87
2023-02-13T05:40:47.298Z,3.84
2023-02-13T05:43:14.366Z,3.82
2023-02-13T05:45:41.476Z,3.82
2023-02-13T05:48:08.634Z,3.80
2023-02-13T05:50:35.871Z,3.83
2023-02-13T05:53:03.041Z,3.83
2023-02-13T05:55:30.196Z,3.83
2023-02-13T05:58:00.311Z,3.85
2023-02-13T06:00:27.494Z,3.86
2023-02-13T06:02:54.745Z,3.86
2023-02-13T06:05:22.149Z,3.87
2023-02-13T06:07:49.474Z,3.87
2023-02-13T06:10:16.861Z,3.88
2023-02-13T06:12:44.322Z,3.88
2023-02-13T06:15:11.414Z,3.88
2023-02-13T06:17:38.506Z,3.89
2023-02-13T06:20:07.525Z,3.90
2023-02-13T06:22:34.800Z,3.89
2023-02-13T06:25:02.154Z,3.89
2023-02-13T06:27:29.249Z,3.90
2023-02-13T06:29:56.471Z,3.88
2023-02-13T06:32:23.594Z,3.91
2023-02-13T06:34:50.678Z,3.89
2023-02-13T06:37:17.915Z,3.91
2023-02-13T06:39:45.400Z,3.91
2023-02-13T06:42:12.467Z,3.91
2023-02-13T06:44:39.740Z,3.93
2023-02-13T06:47:06.830Z,3.92
2023-02-13T06:49:33.968Z,3.92
2023-02-13T06:52:01.134Z,3.92
2023-02-13T06:54:44.686Z,3.91
2023-02-13T06:57:13.282Z,3.90
2023-02-13T06:59:41.547Z,3.90
2023-02-13T07:02:11.787Z,3.90
2023-02-13T07:04:39.121Z,3.91
2023-02-13T07:07:06.693Z,3.93
2023-02-13T07:09:34.244Z,3.94
2023-02-13T07:12:05.748Z,3.94
2023-02-13T07:14:32.941Z,3.94
2023-02-13T07:17:00.027Z,3.92
2023-02-13T07:19:27.283Z,3.91
2023-02-13T07:21:54.285Z,3.90
2023-02-13T07:24:21.456Z,3.91
2023-02-13T07:26:48.617Z,3.94
2023-02-13T07:29:15.731Z,3.97
2023-02-13T07:31:42.792Z,3.98
2023-02-13T07:34:10.122Z,3.98
2023-02-13T07:36:37.287Z,3.98
2023-02-13T07:39:04.327Z,3.95
2023-02-13T07:41:31.326Z,3.97
2023-02-13T07:43:58.402Z,3.98
2023-02-13T07:46:25.613Z,4.03
2023-02-13T07:48:53.554Z,4.07
2023-02-13T07:51:20.938Z,4.16
2023-02-13T07:53:47.911Z,4.22
2023-02-13T07:56:14.917Z,4.26
2023-02-13T07:58:44.475Z,4.31
2023-02-13T08:01:15.052Z,4.36
2023-02-13T08:03:42.211Z,4.42
2023-02-13T08:06:09.855Z,4.47
2023-02-13T08:08:38.411Z,4.50
2023-02-13T08:11:51.171Z,4.55
2023-02-13T08:14:18.284Z,4.60
2023-02-13T08:16:45.357Z,4.66
2023-02-13T08:19:12.705Z,4.71
2023-02-13T08:21:40.729Z,4.78
2023-02-13T08:24:08.674Z,4.85
2023-02-13T08:26:36.004Z,4.88
2023-02-13T08:29:04.422Z,4.94
2023-02-13T08:31:32.122Z,5.02
2023-02-13T08:33:59.267Z,5.09
2023-02-13T08:36:26.511Z,5.16
2023-02-13T08:38:53.911Z,5.23
2023-02-13T08:41:22.255Z,5.33
2023-02-13T08:43:50.755Z,5.40
2023-02-13T08:46:18.596Z,5.45
2023-02-13T08:48:45.791Z,5.49
2023-02-13T08:51:14.678Z,5.59
2023-02-13T08:53:42.644Z,5.64
2023-02-13T08:56:10.910Z,5.69
2023-02-13T08:58:39.544Z,5.71
2023-02-13T09:01:10.131Z,5.76
2023-02-13T09:03:37.580Z,5.84
2023-02-13T09:06:05.132Z,5.88
2023-02-13T09:08:32.838Z,5.97
2023-02-13T09:11:03.087Z,6.00
2023-02-13T09:13:33.689Z,6.05
2023-02-13T09:16:04.951Z,6.11
2023-02-13T09:18:33.067Z,6.17
2023-02-13T09:21:07.512Z,6.28
2023-02-13T09:23:37.309Z,6.34
2023-02-13T09:26:08.061Z,6.43
2023-02-13T09:28:36.781Z,6.50
2023-02-13T09:31:20.446Z,6.58
2023-02-13T09:33:49.217Z,6.65
2023-02-13T09:36:24.726Z,6.72
2023-02-13T09:38:57.228Z,6.77
2023-02-13T09:41:36.282Z,6.83
2023-02-13T09:44:43.314Z,6.93
2023-02-13T09:47:32.109Z,7.00
2023-02-13T09:50:20.136Z,7.08
2023-02-13T09:52:49.036Z,7.16
2023-02-13T09:55:24.519Z,7.22
2023-02-13T09:58:10.551Z,7.31
2023-02-13T10:00:43.115Z,7.40
2023-02-13T10:03:33.961Z,7.47
2023-02-13T10:06:49.976Z,7.55
2023-02-13T10:09:57.473Z,7.63
2023-02-13T10:12:39.778Z,7.70
2023-02-13T10:15:40.739Z,7.78
2023-02-13T10:18:47.203Z,7.86
2023-02-13T10:21:20.150Z,7.92
2023-02-13T10:24:11.441Z,7.99
2023-02-13T10:26:42.935Z,8.06
2023-02-13T10:30:00.562Z,8.13
2023-02-13T10:32:48.522Z,8.22
2023-02-13T10:35:19.080Z,8.29
2023-02-13T10:37:54.130Z,8.35
2023-02-13T10:40:24.720Z,8.42
2023-02-13T10:43:16.441Z,8.51
2023-02-13T10:45:57.165Z,8.58
2023-02-13T10:48:58.050Z,8.65
2023-02-13T10:52:01.957Z,8.72
2023-02-13T10:55:03.144Z,8.82
2023-02-13T10:58:07.804Z,8.89
2023-02-13T11:00:46.396Z,8.95
2023-02-13T11:03:21.999Z,9.02
2023-02-13T11:05:50.749Z,9.10
2023-02-13T11:08:25.140Z,9.19
2023-02-13T11:10:53.353Z,9.27
2023-02-13T11:13:24.151Z,9.34
2023-02-13T11:16:13.939Z,9.39
2023-02-13T11:18:49.555Z,9.45
2023-02-13T11:21:31.802Z,9.53
2023-02-13T11:23:59.013Z,9.59
2023-02-13T11:26:37.161Z,9.66
2023-02-13T11:29:23.755Z,9.71
2023-02-13T11:32:14.273Z,9.78
2023-02-13T11:34:41.748Z,9.84
2023-02-13T11:37:30.518Z,9.89
2023-02-13T11:40:00.361Z,9.93
2023-02-13T11:42:35.494Z,9.99
2023-02-13T11:45:26.132Z,10.06
2023-02-13T11:47:55.561Z,10.11
2023-02-13T11:50:40.568Z,10.19
2023-02-13T11:53:25.743Z,10.25
2023-02-13T11:56:15.233Z,10.31
2023-02-13T11:58:43.335Z,10.34
2023-02-13T12:01:28.560Z,10.42
2023-02-13T12:04:28.049Z,10.52
2023-02-13T12:07:05.656Z,10.58
2023-02-13T12:09:32.793Z,10.62
2023-02-13T12:12:06.641Z,10.65
2023-02-13T12:14:43.209Z,10.73
2023-02-13T12:17:32.824Z,10.78
2023-02-13T12:20:01.187Z,10.81
2023-02-13T12:23:21.444Z,10.84
2023-02-13T12:26:14.448Z,10.88
2023-02-13T12:28:47.866Z,10.92
2023-02-13T12:31:38.990Z,10.96
2023-02-13T12:34:38.696Z,11.00
2023-02-13T12:37:44.468Z,11.07
2023-02-13T12:40:40.020Z,11.11
2023-02-13T12:43:48.537Z,11.17
2023-02-13T12:46:52.983Z,11.22
2023-02-13T12:49:53.341Z,11.30
2023-02-13T12:52:35.167Z,11.32
2023-02-13T12:55:17.419Z,11.37
2023-02-13T12:58:39.761Z,11.42
2023-02-13T13:01:30.991Z,11.49
2023-02-13T13:04:25.964Z,11.54
2023-02-13T13:07:53.131Z,11.59
2023-02-13T13:10:41.922Z,11.63
2023-02-13T13:13:52.056Z,11.65
2023-02-13T13:16:49.277Z,11.69
2023-02-13T13:20:10.426Z,11.75
2023-02-13T13:22:52.483Z,11.81
2023-02-13T13:25:33.826Z,11.86
2023-02-13T13:28:22.896Z,11.89
2023-02-13T13:30:50.558Z,11.90
2023-02-13T13:33:25.105Z,11.92
2023-02-13T13:36:00.969Z,11.97
2023-02-13T13:39:01.702Z,11.99
2023-02-13T13:41:55.164Z,12.04
2023-02-13T13:45:01.212Z,12.06
2023-02-13T13:48:09.399Z,12.09
2023-02-13T13:50:41.955Z,12.13
2023-02-13T13:53:08.948Z,12.15
2023-02-13T13:55:55.976Z,12.20
2023-02-13T13:58:32.597Z,12.22
2023-02-13T14:01:17.901Z,12.24
2023-02-13T14:04:46.748Z,12.29
2023-02-13T14:07:24.482Z,12.29
2023-02-13T14:09:51.708Z,12.30
2023-02-13T14:12:50.252Z,12.33
2023-02-13T14:15:44.576Z,12.33
2023-02-13T14:18:14.550Z,12.32
2023-02-13T14:20:53.175Z,12.31
2023-02-13T14:23:29.593Z,12.34
2023-02-13T14:26:17.739Z,12.35
2023-02-13T14:28:50.554Z,12.35
2023-02-13T14:31:59.106Z,12.33
2023-02-13T14:34:34.922Z,12.32
2023-02-13T14:37:27.309Z,12.35
2023-02-13T14:40:20.233Z,12.36
2023-02-13T14:42:56.589Z,12.36
2023-02-13T14:45:48.098Z,12.37
2023-02-13T14:48:16.114Z,12.36
2023-02-13T14:50:50.769Z,12.38
2023-02-13T14:53:30.242Z,12.38
2023-02-13T14:56:07.346Z,12.36
2023-02-13T14:58:44.817Z,12.33
2023-02-13T15:01:33.668Z,12.32
2023-02-13T15:04:31.976Z,12.32
2023-02-13T15:07:03.878Z,12.31
2023-02-13T15:09:41.367Z,12.27
2023-02-13T15:12:44.121Z,12.26
2023-02-13T15:15:30.147Z,12.23
2023-02-13T15:18:07.854Z,12.20
2023-02-13T15:20:40.014Z,12.15
2023-02-13T15:23:07.766Z,12.13
2023-02-13T15:25:40.297Z,12.09
2023-02-13T15:28:18.598Z,12.07
2023-02-13T15:31:21.567Z,12.04
2023-02-13T15:33:51.873Z,11.99
2023-02-13T15:36:23.746Z,11.98
2023-02-13T15:39:00.135Z,11.95
2023-02-13T15:41:34.954Z,11.90
2023-02-13T15:44:02.287Z,11.86
2023-02-13T15:46:38.649Z,11.82
2023-02-13T15:49:20.146Z,11.77
2023-02-13T15:51:48.238Z,11.72
2023-02-13T15:54:27.557Z,11.65
2023-02-13T15:56:59.887Z,11.59
2023-02-13T15:59:35.191Z,11.55
2023-02-13T16:02:05.383Z,11.51
2023-02-13T16:04:34.084Z,11.46
2023-02-13T16:07:02.020Z,11.42
2023-02-13T16:09:34.724Z,11.36
2023-02-13T16:12:26.826Z,11.31
2023-02-13T16:15:03.131Z,11.24
2023-02-13T16:17:32.976Z,11.18
2023-02-13T16:20:22.572Z,11.08
2023-02-13T16:22:51.570Z,11.02
2023-02-13T16:25:40.946Z,10.95
2023-02-13T16:28:22.068Z,10.86
2023-02-13T16:31:04.390Z,10.75
2023-02-13T16:33:33.453Z,10.65
2023-02-13T16:36:29.268Z,10.57
2023-02-13T16:38:56.576Z,10.45
2023-02-13T16:41:23.485Z,10.36
2023-02-13T16:44:00.577Z,10.26
2023-02-13T16:46:41.327Z,10.15
2023-02-13T16:49:11.951Z,10.06
2023-02-13T16:51:56.841Z,9.97
2023-02-13T16:54:33.712Z,9.86
2023-02-13T16:57:26.993Z,9.74
2023-02-13T17:00:19.651Z,9.65
2023-02-13T17:02:49.336Z,9.55
2023-02-13T17:05:28.381Z,9.46
2023-02-13T17:07:58.025Z,9.37
2023-02-13T17:10:35.094Z,9.28
2023-02-13T17:13:17.689Z,9.18
2023-02-13T17:15:47.600Z,9.08
2023-02-13T17:18:15.126Z,9.01
2023-02-13T17:20:45.806Z,8.93
2023-02-13T17:23:23.536Z,8.84
2023-02-13T17:25:53.841Z,8.76
2023-02-13T17:28:27.822Z,8.69
2023-02-13T17:30:58.903Z,8.64
2023-02-13T17:33:30.184Z,8.58
2023-02-13T17:35:57.415Z,8.51
2023-02-13T17:38:24.673Z,8.45
2023-02-13T17:40:52.129Z,8.38
2023-02-13T17:43:20.788Z,8.34
2023-02-13T17:45:49.976Z,8.29
2023-02-13T17:48:17.836Z,8.23
2023-02-13T17:50:45.607Z,8.18
2023-02-13T17:53:27.944Z,8.12
2023-02-13T17:55:55.211Z,8.09
2023-02-13T17:58:22.826Z,8.03
2023-02-13T18:00:50.505Z,7.99
2023-02-13T18:03:17.728Z,7.96
2023-02-13T18:05:50.617Z,7.90
2023-02-13T18:08:19.427Z,7.85
2023-02-13T18:10:46.559Z,7.80
2023-02-13T18:13:13.777Z,7.76
2023-02-13T18:15:44.411Z,7.72
2023-02-13T18:18:16.112Z,7.68
2023-02-13T18:20:44.063Z,7.65
2023-02-13T18:23:11.522Z,7.61
2023-02-13T18:25:38.731Z,7.57
2023-02-13T18:28:06.074Z,7.55
2023-02-13T18:30:34.078Z,7.50
2023-02-13T18:33:05.041Z,7.48
2023-02-13T18:35:33.435Z,7.45
2023-02-13T18:38:00.780Z,7.42
2023-02-13T18:40:27.883Z,7.38
2023-02-13T18:42:55.182Z,7.34
2023-02-13T18:45:22.459Z,7.31
2023-02-13T18:47:49.503Z,7.29
2023-02-13T18:50:16.631Z,7.24
2023-02-13T18:52:44.082Z,7.20
2023-02-13T18:55:11.482Z,7.17
2023-02-13T18:57:43.580Z,7.14
2023-02-13T19:00:13.162Z,7.09
2023-02-13T19:02:40.296Z,7.05
2023-02-13T19:05:07.501Z,7.01
2023-02-13T19:07:34.820Z,6.97
2023-02-13T19:10:02.131Z,6.96
2023-02-13T19:12:29.835Z,6.90
2023-02-13T19:14:56.922Z,6.90
2023-02-13T19:17:24.056Z,6.87
2023-02-13T19:19:51.950Z,6.83
2023-02-13T19:22:19.453Z,6.81
2023-02-13T19:24:46.854Z,6.78
2023-02-13T19:27:14.486Z,6.77
2023-02-13T19:29:41.636Z,6.74
2023-02-13T19:32:09.208Z,6.72
2023-02-13T19:34:36.603Z,6.69
2023-02-13T19:37:03.570Z,6.68
2023-02-13T19:39:30.723Z,6.66
2023-02-13T19:41:58.020Z,6.62
2023-02-13T19:44:25.336Z,6.60
2023-02-13T19:46:52.692Z,6.55
2023-02-13T19:49:22.439Z,6.52
2023-02-13T19:51:49.465Z,6.47
2023-02-13T19:54:16.518Z,6.46
2023-02-13T19:56:43.879Z,6.43
2023-02-13T19:59:13.454Z,6.39
2023-02-13T20:01:43.985Z,6.35
2023-02-13T20:04:11.781Z,6.32
2023-02-13T20:06:40.156Z,6.30
2023-02-13T20:09:14.007Z,6.29
2023-02-13T20:11:43.110Z,6.24
2023-02-13T20:14:15.047Z,6.19
2023-02-13T20:16:45.693Z,6.16
2023-02-13T20:19:14.080Z,6.12
2023-02-13T20:21:42.604Z,6.10
2023-02-13T20:24:11.041Z,6.08
2023-02-13T20:26:39.319Z,6.03
2023-02-13T20:29:07.809Z,6.01
2023-02-13T20:31:35.252Z,5.99
2023-02-13T20:34:05.593Z,5.96
2023-02-13T20:36:33.046Z,5.93
2023-02-13T20:39:05.547Z,5.89
2023-02-13T20:41:35.869Z,5.86
2023-02-13T20:44:08.035Z,5.79
2023-02-13T20:46:38.532Z,5.76
2023-02-13T20:49:06.530Z,5.74
2023-02-13T20:51:34.755Z,5.71
2023-02-13T20:54:05.561Z,5.69
2023-02-13T20:56:33.401Z,5.65
2023-02-13T20:59:02.496Z,5.61
2023-02-13T21:01:40.407Z,5.59
2023-02-13T21:04:11.289Z,5.54
2023-02-13T21:06:40.842Z,5.53
2023-02-13T21:09:11.014Z,5.50
2023-02-13T21:11:43.043Z,5.48
2023-02-13T21:14:12.448Z,5.50
2023-02-13T21:16:41.888Z,5.47
2023-02-13T21:19:15.253Z,5.45
2023-02-13T21:21:44.137Z,5.41
2023-02-13T21:24:21.762Z,5.41
2023-02-13T21:26:52.363Z,5.36
2023-02-13T21:29:20.247Z,5.32
2023-02-13T21:31:47.932Z,5.30
2023-02-13T21:34:17.176Z,5.29
2023-02-13T21:36:44.911Z,5.26
2023-02-13T21:39:13.565Z,5.26
2023-02-13T21:41:44.234Z,5.22
2023-02-13T21:44:14.546Z,5.17
2023-02-13T21:46:43.480Z,5.18
2023-02-13T21:49:15.700Z,5.16
2023-02-13T21:51:42.959Z,5.14
2023-02-13T21:54:11.165Z,5.10
2023-02-13T21:56:41.743Z,5.08
2023-02-13T21:59:10.300Z,5.04
2023-02-13T22:01:38.362Z,5.03
2023-02-13T22:04:08.584Z,5.00
2023-02-13T22:06:38.932Z,4.98
2023-02-13T22:09:08.941Z,4.94
2023-02-13T22:11:37.698Z,4.92
2023-02-13T22:14:07.753Z,4.89
2023-02-13T22:16:37.998Z,4.88
2023-02-13T22:19:07.033Z,4.85
2023-02-13T22:21:36.568Z,4.83
2023-02-13T22:24:04.443Z,4.82
2023-02-13T22:26:38.363Z,4.80
2023-02-13T22:29:09.999Z,4.77
2023-02-13T22:31:37.699Z,4.75
2023-02-13T22:34:06.240Z,4.73
2023-02-13T22:36:39.013Z,4.70
2023-02-13T22:39:08.839Z,4.66
2023-02-13T22:41:36.817Z,4.63
2023-02-13T22:44:04.484Z,4.59
2023-02-13T22:46:33.955Z,4.59
2023-02-13T22:49:01.606Z,4.56
2023-02-13T22:51:36.273Z,4.53
2023-02-13T22:54:04.907Z,4.50
2023-02-13T22:56:32.947Z,4.47
2023-02-13T22:59:00.537Z,4.46
2023-02-13T23:01:29.168Z,4.43
2023-02-13T23:03:57.594Z,4.39
2023-02-13T23:06:25.725Z,4.36
2023-02-13T23:08:53.702Z,4.34
2023-02-13T23:11:43.312Z,4.33
2023-02-13T23:14:11.815Z,4.29
2023-02-13T23:16:59.350Z,4.26
2023-02-13T23:19:27.743Z,4.21
2023-02-13T23:21:55.428Z,4.20
2023-02-13T23:24:22.676Z,4.18
2023-02-13T23:26:49.968Z,4.16
2023-02-13T23:29:17.244Z,4.13
2023-02-13T23:31:44.573Z,4.10
2023-02-13T23:34:11.983Z,4.06
2023-02-13T23:36:39.083Z,4.03
2023-02-13T23:39:06.640Z,4.02
2023-02-13T23:41:34.364Z,3.99
2023-02-13T23:44:01.732Z,3.98
2023-02-13T23:46:29.073Z,3.94
2023-02-13T23:48:56.489Z,3.91
2023-02-13T23:51:25.741Z,3.90
2023-02-13T23:53:56.393Z,3.86
2023-02-13T23:56:33.054Z,3.85
2023-02-13T23:59:00.554Z,3.81
